sensor_id;sensor_type;location;lat;lon;timestamp;pressure;altitude;pressure_sealevel;temperature;humidity
12973;BME280;6551;51.056;9.466;2023-02-12T00:00:47;99586.16;;;8.45;87.85
12973;BME280;6551;51.056;9.466;2023-02-12T00:03:12;99581.59;;;8.29;88.40
12973;BME280;6551;51.056;9.466;2023-02-12T00:05:39;99572.75;;;8.46;87.76
12973;BME280;6551;51.056;9.466;2023-02-12T00:08:08;99576.28;;;8.29;87.61
12973;BME280;6551;51.056;9.466;2023-02-12T00:10:40;99567.34;;;8.30;87.14
12973;BME280;6551;51.056;9.466;2023-02-12T00:13:08;99569.16;;;8.30;87.37
12973;BME280;6551;51.056;9.466;2023-02-12T00:15:40;99578.28;;;8.27;87.79
12973;BME280;6551;51.056;9.466;2023-02-12T00:18:06;99572.25;;;8.25;87.49
12973;BME280;6551;51.056;9.466;2023-02-12T00:20:34;99563.38;;;8.34;87.31
12973;BME280;6551;51.056;9.466;2023-02-12T00:23:00;99569.16;;;8.30;87.06
12973;BME280;6551;51.056;9.466;2023-02-12T00:25:26;99579.81;;;8.12;87.37
12973;BME280;6551;51.056;9.466;2023-02-12T00:27:51;99580.22;;;8.25;87.06
12973;BME280;6551;51.056;9.466;2023-02-12T00:30:17;99568.47;;;8.28;86.97
12973;BME280;6551;51.056;9.466;2023-02-12T00:32:45;99573.34;;;8.14;86.73
12973;BME280;6551;51.056;9.466;2023-02-12T00:35:11;99576.50;;;8.36;86.47
12973;BME280;6551;51.056;9.466;2023-02-12T00:37:38;99583.72;;;8.51;85.82
12973;BME280;6551;51.056;9.466;2023-02-12T00:40:05;99583.09;;;8.32;86.20
12973;BME280;6551;51.056;9.466;2023-02-12T00:42:31;99582.84;;;8.25;86.19
12973;BME280;6551;51.056;9.466;2023-02-12T00:44:57;99578.47;;;8.34;85.84
12973;BME280;6551;51.056;9.466;2023-02-12T00:47:23;99567.75;;;8.43;85.94
12973;BME280;6551;51.056;9.466;2023-02-12T00:49:48;99582.22;;;8.49;85.52
12973;BME280;6551;51.056;9.466;2023-02-12T00:52:14;99576.28;;;8.55;85.63
12973;BME280;6551;51.056;9.466;2023-02-12T00:54:41;99582.28;;;8.65;84.71
12973;BME280;6551;51.056;9.466;2023-02-12T00:57:06;99579.94;;;8.62;84.67
12973;BME280;6551;51.056;9.466;2023-02-12T00:59:33;99580.75;;;8.54;84.83
12973;BME280;6551;51.056;9.466;2023-02-12T01:02:02;99578.66;;;8.66;84.33
12973;BME280;6551;51.056;9.466;2023-02-12T01:04:29;99576.94;;;8.57;83.98
12973;BME280;6551;51.056;9.466;2023-02-12T01:06:56;99577.97;;;8.72;84.25
12973;BME280;6551;51.056;9.466;2023-02-12T01:09:21;99576.69;;;8.76;83.84
12973;BME280;6551;51.056;9.466;2023-02-12T01:11:47;99572.34;;;8.75;84.05
12973;BME280;6551;51.056;9.466;2023-02-12T01:14:13;99576.69;;;8.76;84.12
12973;BME280;6551;51.056;9.466;2023-02-12T01:16:39;99582.84;;;8.76;83.52
12973;BME280;6551;51.056;9.466;2023-02-12T01:19:05;99588.31;;;8.83;83.61
12973;BME280;6551;51.056;9.466;2023-02-12T01:21:33;99586.84;;;8.89;83.25
12973;BME280;6551;51.056;9.466;2023-02-12T01:24:00;99584.97;;;8.73;83.22
12973;BME280;6551;51.056;9.466;2023-02-12T01:26:30;99574.34;;;8.73;83.23
12973;BME280;6551;51.056;9.466;2023-02-12T01:29:03;99585.47;;;8.68;83.78
12973;BME280;6551;51.056;9.466;2023-02-12T01:31:37;99586.09;;;8.62;83.52
12973;BME280;6551;51.056;9.466;2023-02-12T01:34:05;99586.91;;;8.55;83.95
12973;BME280;6551;51.056;9.466;2023-02-12T01:36:33;99580.59;;;8.64;83.84
12973;BME280;6551;51.056;9.466;2023-02-12T01:38:59;99575.97;;;8.58;83.82
12973;BME280;6551;51.056;9.466;2023-02-12T01:41:31;99573.41;;;8.48;84.64
12973;BME280;6551;51.056;9.466;2023-02-12T01:46:44;99569.81;;;8.57;85.18
12973;BME280;6551;51.056;9.466;2023-02-12T01:49:35;99574.00;;;8.68;84.89
12973;BME280;6551;51.056;9.466;2023-02-12T01:52:46;99568.53;;;8.77;84.84
12973;BME280;6551;51.056;9.466;2023-02-12T01:55:13;99564.75;;;8.80;84.64
12973;BME280;6551;51.056;9.466;2023-02-12T01:57:42;99572.38;;;8.83;84.02
12973;BME280;6551;51.056;9.466;2023-02-12T02:00:18;99571.88;;;8.71;83.56
12973;BME280;6551;51.056;9.466;2023-02-12T02:02:48;99570.00;;;8.64;83.87
12973;BME280;6551;51.056;9.466;2023-02-12T02:05:30;99572.38;;;8.83;83.94
12973;BME280;6551;51.056;9.466;2023-02-12T02:07:59;99571.91;;;8.79;83.57
12973;BME280;6551;51.056;9.466;2023-02-12T02:10:24;99568.97;;;8.99;83.28
12973;BME280;6551;51.056;9.466;2023-02-12T02:12:50;99560.47;;;8.95;82.58
12973;BME280;6551;51.056;9.466;2023-02-12T02:15:37;99558.00;;;8.94;82.51
12973;BME280;6551;51.056;9.466;2023-02-12T02:27:23;99555.16;;;8.95;82.43
12973;BME280;6551;51.056;9.466;2023-02-12T02:36:46;99557.19;;;9.09;82.40
12973;BME280;6551;51.056;9.466;2023-02-12T02:39:28;99553.38;;;9.12;82.17
12973;BME280;6551;51.056;9.466;2023-02-12T02:42:26;99555.72;;;9.23;81.81
12973;BME280;6551;51.056;9.466;2023-02-12T02:48:03;99551.72;;;9.11;81.82
12973;BME280;6551;51.056;9.466;2023-02-12T02:50:35;99544.09;;;9.08;82.17
12973;BME280;6551;51.056;9.466;2023-02-12T02:53:11;99539.91;;;9.05;82.17
12973;BME280;6551;51.056;9.466;2023-02-12T02:55:45;99547.06;;;9.05;82.04
12973;BME280;6551;51.056;9.466;2023-02-12T02:58:16;99546.88;;;9.06;81.78
12973;BME280;6551;51.056;9.466;2023-02-12T03:01:09;99544.72;;;9.02;82.67
12973;BME280;6551;51.056;9.466;2023-02-12T03:04:17;99540.38;;;8.93;82.32
12973;BME280;6551;51.056;9.466;2023-02-12T03:06:58;99551.69;;;8.95;82.67
12973;BME280;6551;51.056;9.466;2023-02-12T03:09:38;99544.22;;;8.98;82.97
12973;BME280;6551;51.056;9.466;2023-02-12T03:12:22;99546.69;;;8.92;82.74
12973;BME280;6551;51.056;9.466;2023-02-12T03:15:00;99545.88;;;8.91;82.81
12973;BME280;6551;51.056;9.466;2023-02-12T03:17:37;99543.03;;;8.85;82.59
12973;BME280;6551;51.056;9.466;2023-02-12T03:20:36;99545.66;;;8.76;83.12
12973;BME280;6551;51.056;9.466;2023-02-12T03:23:10;99542.16;;;8.76;83.47
12973;BME280;6551;51.056;9.466;2023-02-12T03:25:48;99548.66;;;8.81;83.23
12973;BME280;6551;51.056;9.466;2023-02-12T03:28:24;99540.69;;;8.81;83.67
12973;BME280;6551;51.056;9.466;2023-02-12T03:48:55;99548.38;;;9.01;82.65
12973;BME280;6551;51.056;9.466;2023-02-12T03:51:36;99549.03;;;9.03;83.56
12973;BME280;6551;51.056;9.466;2023-02-12T03:54:04;99550.03;;;8.94;83.61
12973;BME280;6551;51.056;9.466;2023-02-12T03:56:59;99556.38;;;9.09;83.54
12973;BME280;6551;51.056;9.466;2023-02-12T03:59:26;99554.84;;;8.98;83.62
12973;BME280;6551;51.056;9.466;2023-02-12T04:01:54;99563.00;;;9.05;83.76
12973;BME280;6551;51.056;9.466;2023-02-12T04:04:23;99555.72;;;9.15;83.42
12973;BME280;6551;51.056;9.466;2023-02-12T04:06:50;99570.16;;;9.04;83.52
12973;BME280;6551;51.056;9.466;2023-02-12T04:09:17;99565.47;;;8.98;83.80
12973;BME280;6551;51.056;9.466;2023-02-12T04:12:37;99570.53;;;8.75;83.83
12973;BME280;6551;51.056;9.466;2023-02-12T04:20:56;99578.88;;;8.89;84.23
12973;BME280;6551;51.056;9.466;2023-02-12T04:23:44;99581.22;;;8.92;84.05
12973;BME280;6551;51.056;9.466;2023-02-12T04:30:07;99589.22;;;8.58;84.65
12973;BME280;6551;51.056;9.466;2023-02-12T04:32:49;99593.06;;;8.63;85.25
12973;BME280;6551;51.056;9.466;2023-02-12T04:35:50;99590.22;;;8.57;85.82
12973;BME280;6551;51.056;9.466;2023-02-12T04:38:29;99590.19;;;8.49;85.82
12973;BME280;6551;51.056;9.466;2023-02-12T04:40:57;99596.00;;;8.52;85.65
12973;BME280;6551;51.056;9.466;2023-02-12T04:43:35;99605.47;;;8.55;85.94
12973;BME280;6551;51.056;9.466;2023-02-12T04:46:04;99600.34;;;8.61;85.77
12973;BME280;6551;51.056;9.466;2023-02-12T04:48:31;99604.31;;;8.57;86.03
12973;BME280;6551;51.056;9.466;2023-02-12T04:50:59;99607.88;;;8.40;86.48
12973;BME280;6551;51.056;9.466;2023-02-12T04:53:27;99603.09;;;8.44;86.93
12973;BME280;6551;51.056;9.466;2023-02-12T04:55:53;99606.63;;;8.52;86.67
12973;BME280;6551;51.056;9.466;2023-02-12T04:58:21;99601.16;;;8.54;86.47
12973;BME280;6551;51.056;9.466;2023-02-12T05:00:46;99602.28;;;8.51;86.54
12973;BME280;6551;51.056;9.466;2023-02-12T05:03:12;99605.88;;;8.42;87.39
12973;BME280;6551;51.056;9.466;2023-02-12T05:05:40;99606.41;;;8.46;87.27
12973;BME280;6551;51.056;9.466;2023-02-12T05:08:07;99603.59;;;8.47;87.00
12973;BME280;6551;51.056;9.466;2023-02-12T05:10:32;99603.72;;;8.38;87.19
12973;BME280;6551;51.056;9.466;2023-02-12T05:13:00;99597.00;;;8.51;87.05
12973;BME280;6551;51.056;9.466;2023-02-12T05:15:26;99600.84;;;8.57;86.82
12973;BME280;6551;51.056;9.466;2023-02-12T05:17:52;99606.34;;;8.63;86.42
12973;BME280;6551;51.056;9.466;2023-02-12T05:20:19;99607.16;;;8.64;86.17
12973;BME280;6551;51.056;9.466;2023-02-12T05:22:44;99606.28;;;8.55;86.42
12973;BME280;6551;51.056;9.466;2023-02-12T05:25:10;99604.28;;;8.49;87.25
12973;BME280;6551;51.056;9.466;2023-02-12T05:27:37;99602.81;;;8.55;87.31
12973;BME280;6551;51.056;9.466;2023-02-12T05:30:04;99598.50;;;8.54;86.99
12973;BME280;6551;51.056;9.466;2023-02-12T05:32:31;99613.97;;;8.66;86.89
12973;BME280;6551;51.056;9.466;2023-02-12T05:34:57;99610.78;;;8.55;87.29
12973;BME280;6551;51.056;9.466;2023-02-12T05:37:27;99601.78;;;8.48;87.63
12973;BME280;6551;51.056;9.466;2023-02-12T05:39:54;99603.84;;;8.62;86.99
12973;BME280;6551;51.056;9.466;2023-02-12T05:42:20;99603.41;;;8.74;87.43
12973;BME280;6551;51.056;9.466;2023-02-12T05:44:45;99612.47;;;8.64;87.21
12973;BME280;6551;51.056;9.466;2023-02-12T05:47:11;99607.41;;;8.78;86.59
12973;BME280;6551;51.056;9.466;2023-02-12T05:49:38;99605.88;;;8.42;87.69
12973;BME280;6551;51.056;9.466;2023-02-12T05:52:03;99617.97;;;8.37;88.31
12973;BME280;6551;51.056;9.466;2023-02-12T05:54:30;99614.38;;;8.46;88.68
12973;BME280;6551;51.056;9.466;2023-02-12T05:56:56;99612.97;;;8.34;88.88
12973;BME280;6551;51.056;9.466;2023-02-12T05:59:23;99613.00;;;8.42;88.84
12973;BME280;6551;51.056;9.466;2023-02-12T06:01:50;99615.47;;;8.35;88.78
12973;BME280;6551;51.056;9.466;2023-02-12T06:04:23;99621.28;;;8.39;89.52
12973;BME280;6551;51.056;9.466;2023-02-12T06:06:50;99621.84;;;8.50;88.76
12973;BME280;6551;51.056;9.466;2023-02-12T06:09:18;99622.75;;;8.59;88.30
12973;BME280;6551;51.056;9.466;2023-02-12T06:11:44;99627.69;;;8.54;87.77
12973;BME280;6551;51.056;9.466;2023-02-12T06:14:14;99627.13;;;8.68;87.19
12973;BME280;6551;51.056;9.466;2023-02-12T06:16:47;99620.31;;;8.65;87.29
12973;BME280;6551;51.056;9.466;2023-02-12T06:19:13;99624.41;;;8.60;87.79
12973;BME280;6551;51.056;9.466;2023-02-12T06:21:41;99621.13;;;8.66;87.42
12973;BME280;6551;51.056;9.466;2023-02-12T06:24:06;99623.97;;;8.72;87.81
12973;BME280;6551;51.056;9.466;2023-02-12T06:26:32;99627.59;;;8.63;87.72
12973;BME280;6551;51.056;9.466;2023-02-12T06:28:58;99638.75;;;8.75;88.04
12973;BME280;6551;51.056;9.466;2023-02-12T06:31:29;99635.56;;;8.63;88.12
12973;BME280;6551;51.056;9.466;2023-02-12T06:34:06;99629.50;;;8.79;87.30
12973;BME280;6551;51.056;9.466;2023-02-12T06:36:36;99636.13;;;8.83;87.37
12973;BME280;6551;51.056;9.466;2023-02-12T06:39:06;99637.25;;;8.72;87.69
12973;BME280;6551;51.056;9.466;2023-02-12T06:41:33;99640.03;;;8.63;87.57
12973;BME280;6551;51.056;9.466;2023-02-12T06:43:59;99640.03;;;8.63;87.92
12973;BME280;6551;51.056;9.466;2023-02-12T06:46:26;99644.38;;;8.72;87.97
12973;BME280;6551;51.056;9.466;2023-02-12T06:48:56;99654.34;;;8.70;88.19
12973;BME280;6551;51.056;9.466;2023-02-12T06:51:23;99651.00;;;8.68;87.89
12973;BME280;6551;51.056;9.466;2023-02-12T06:53:51;99650.75;;;8.79;87.88
12973;BME280;6551;51.056;9.466;2023-02-12T06:56:20;99648.16;;;8.36;89.59
12973;BME280;6551;51.056;9.466;2023-02-12T06:58:53;99651.31;;;8.39;89.14
12973;BME280;6551;51.056;9.466;2023-02-12T07:01:23;99658.31;;;8.40;89.54
12973;BME280;6551;51.056;9.466;2023-02-12T07:03:58;99661.28;;;8.37;89.70
12973;BME280;6551;51.056;9.466;2023-02-12T07:06:25;99667.53;;;8.54;89.37
12973;BME280;6551;51.056;9.466;2023-02-12T07:08:51;99668.06;;;8.57;89.22
12973;BME280;6551;51.056;9.466;2023-02-12T07:11:27;99674.38;;;8.64;89.13
12973;BME280;6551;51.056;9.466;2023-02-12T07:13:53;99670.94;;;8.72;88.25
12973;BME280;6551;51.056;9.466;2023-02-12T07:16:19;99680.47;;;8.82;88.16
12973;BME280;6551;51.056;9.466;2023-02-12T07:18:46;99686.00;;;8.97;87.88
12973;BME280;6551;51.056;9.466;2023-02-12T07:21:19;99688.53;;;8.99;87.29
12973;BME280;6551;51.056;9.466;2023-02-12T07:23:47;99690.16;;;9.00;87.20
12973;BME280;6551;51.056;9.466;2023-02-12T07:26:15;99690.84;;;8.94;87.17
12973;BME280;6551;51.056;9.466;2023-02-12T07:28:42;99695.00;;;8.96;87.01
12973;BME280;6551;51.056;9.466;2023-02-12T07:31:11;99693.34;;;9.03;87.06
12973;BME280;6551;51.056;9.466;2023-02-12T07:33:39;99691.63;;;8.94;87.16
12973;BME280;6551;51.056;9.466;2023-02-12T07:36:26;99686.72;;;8.99;87.29
12973;BME280;6551;51.056;9.466;2023-02-12T07:38:54;99690.66;;;8.95;87.44
12973;BME280;6551;51.056;9.466;2023-02-12T07:41:27;99690.38;;;9.06;87.20
12973;BME280;6551;51.056;9.466;2023-02-12T07:43:57;99700.19;;;9.14;86.89
12973;BME280;6551;51.056;9.466;2023-02-12T07:46:30;99700.88;;;9.08;86.86
12973;BME280;6551;51.056;9.466;2023-02-12T07:49:04;99704.00;;;9.11;87.21
12973;BME280;6551;51.056;9.466;2023-02-12T07:51:33;99695.94;;;9.21;86.99
12973;BME280;6551;51.056;9.466;2023-02-12T07:54:01;99706.25;;;9.24;86.84
12973;BME280;6551;51.056;9.466;2023-02-12T07:56:30;99698.13;;;9.33;86.70
12973;BME280;6551;51.056;9.466;2023-02-12T07:59:02;99701.94;;;9.31;86.63
12973;BME280;6551;51.056;9.466;2023-02-12T08:01:49;99704.63;;;9.39;86.87
12973;BME280;6551;51.056;9.466;2023-02-12T08:04:19;99705.75;;;9.28;87.00
12973;BME280;6551;51.056;9.466;2023-02-12T08:06:48;99714.56;;;9.29;87.20
12973;BME280;6551;51.056;9.466;2023-02-12T08:09:21;99713.72;;;9.28;86.97
12973;BME280;6551;51.056;9.466;2023-02-12T08:11:48;99709.91;;;9.31;87.02
12973;BME280;6551;51.056;9.466;2023-02-12T08:14:16;99717.09;;;9.38;86.77
12973;BME280;6551;51.056;9.466;2023-02-12T08:16:45;99723.22;;;9.31;87.31
12973;BME280;6551;51.056;9.466;2023-02-12T08:19:12;99718.72;;;9.31;87.00
12973;BME280;6551;51.056;9.466;2023-02-12T08:21:40;99720.41;;;9.32;87.29
12973;BME280;6551;51.056;9.466;2023-02-12T08:24:05;99719.91;;;9.37;86.78
12973;BME280;6551;51.056;9.466;2023-02-12T08:26:36;99718.94;;;9.38;87.33
12973;BME280;6551;51.056;9.466;2023-02-12T08:29:09;99720.31;;;9.58;86.66
12973;BME280;6551;51.056;9.466;2023-02-12T08:31:40;99723.78;;;9.51;86.56
12973;BME280;6551;51.056;9.466;2023-02-12T08:34:18;99726.16;;;9.62;86.74
12973;BME280;6551;51.056;9.466;2023-02-12T08:36:49;99721.63;;;9.54;86.89
12973;BME280;6551;51.056;9.466;2023-02-12T08:39:16;99725.81;;;9.57;86.80
12973;BME280;6551;51.056;9.466;2023-02-12T08:41:42;99726.16;;;9.62;86.74
12973;BME280;6551;51.056;9.466;2023-02-12T08:44:10;99729.97;;;9.67;86.82
12973;BME280;6551;51.056;9.466;2023-02-12T08:46:41;99726.69;;;9.73;86.86
12973;BME280;6551;51.056;9.466;2023-02-12T08:49:18;99733.19;;;9.79;86.75
12973;BME280;6551;51.056;9.466;2023-02-12T08:51:49;99722.34;;;9.72;87.44
12973;BME280;6551;51.056;9.466;2023-02-12T08:54:23;99727.09;;;9.53;87.36
12973;BME280;6551;51.056;9.466;2023-02-12T08:56:50;99726.63;;;9.57;87.74
12973;BME280;6551;51.056;9.466;2023-02-12T08:59:19;99727.66;;;9.72;87.98
12973;BME280;6551;51.056;9.466;2023-02-12T09:01:45;99722.91;;;10.00;87.61
12973;BME280;6551;51.056;9.466;2023-02-12T09:04:23;99724.47;;;10.19;86.35
12973;BME280;6551;51.056;9.466;2023-02-12T09:06:50;99734.91;;;10.12;86.86
12973;BME280;6551;51.056;9.466;2023-02-12T09:09:16;99734.75;;;10.14;86.73
12973;BME280;6551;51.056;9.466;2023-02-12T09:11:43;99729.44;;;10.14;86.05
12973;BME280;6551;51.056;9.466;2023-02-12T09:14:13;99733.63;;;10.24;85.90
12973;BME280;6551;51.056;9.466;2023-02-12T09:16:41;99739.75;;;10.25;85.80
12973;BME280;6551;51.056;9.466;2023-02-12T09:19:13;99739.09;;;10.23;85.51
12973;BME280;6551;51.056;9.466;2023-02-12T09:21:38;99740.78;;;10.32;85.69
12973;BME280;6551;51.056;9.466;2023-02-12T09:24:04;99741.28;;;10.43;85.20
12973;BME280;6551;51.056;9.466;2023-02-12T09:26:31;99740.25;;;10.52;85.01
12973;BME280;6551;51.056;9.466;2023-02-12T09:29:02;99745.25;;;10.15;86.10
12973;BME280;6551;51.056;9.466;2023-02-12T09:31:30;99742.91;;;10.20;86.10
12973;BME280;6551;51.056;9.466;2023-02-12T09:34:04;99745.91;;;10.33;86.20
12973;BME280;6551;51.056;9.466;2023-02-12T09:36:31;99746.59;;;10.43;85.04
12973;BME280;6551;51.056;9.466;2023-02-12T09:38:59;99749.59;;;10.40;84.96
12973;BME280;6551;51.056;9.466;2023-02-12T09:45:15;99751.91;;;10.60;84.70
12973;BME280;6551;51.056;9.466;2023-02-12T09:48:00;99753.41;;;10.70;84.12
12973;BME280;6551;51.056;9.466;2023-02-12T09:50:53;99756.91;;;10.71;83.99
12973;BME280;6551;51.056;9.466;2023-02-12T09:53:25;99748.91;;;10.71;83.92
12973;BME280;6551;51.056;9.466;2023-02-12T09:55:53;99749.88;;;10.78;83.89
12973;BME280;6551;51.056;9.466;2023-02-12T09:58:41;99755.72;;;10.73;83.41
12973;BME280;6551;51.056;9.466;2023-02-12T10:01:16;99757.22;;;10.76;83.47
12973;BME280;6551;51.056;9.466;2023-02-12T10:03:44;99767.03;;;10.75;83.11
12973;BME280;6551;51.056;9.466;2023-02-12T10:06:40;99756.56;;;10.74;83.66
12973;BME280;6551;51.056;9.466;2023-02-12T10:13:04;99756.22;;;10.93;82.86
12973;BME280;6551;51.056;9.466;2023-02-12T10:15:56;99763.53;;;10.99;83.15
12973;BME280;6551;51.056;9.466;2023-02-12T10:24:51;99753.06;;;10.73;83.74
12973;BME280;6551;51.056;9.466;2023-02-12T10:27:48;99755.22;;;10.70;84.30
12973;BME280;6551;51.056;9.466;2023-02-12T10:30:25;99760.53;;;10.78;83.99
12973;BME280;6551;51.056;9.466;2023-02-12T10:33:06;99755.91;;;10.64;84.09
12973;BME280;6551;51.056;9.466;2023-02-12T10:35:47;99757.56;;;10.73;84.10
12973;BME280;6551;51.056;9.466;2023-02-12T10:38:22;99754.53;;;10.92;83.94
12973;BME280;6551;51.056;9.466;2023-02-12T10:40:51;99751.56;;;10.79;83.35
12973;BME280;6551;51.056;9.466;2023-02-12T10:43:19;99756.72;;;10.88;83.41
12973;BME280;6551;51.056;9.466;2023-02-12T10:45:45;99748.72;;;10.80;83.22
12973;BME280;6551;51.056;9.466;2023-02-12T10:48:49;99749.88;;;11.02;83.42
12973;BME280;6551;51.056;9.466;2023-02-12T10:52:04;99745.03;;;10.97;82.77
12973;BME280;6551;51.056;9.466;2023-02-12T10:54:46;99744.94;;;11.30;82.74
12973;BME280;6551;51.056;9.466;2023-02-12T10:57:49;99755.78;;;11.67;81.52
12973;BME280;6551;51.056;9.466;2023-02-12T11:00:35;99750.44;;;11.67;79.86
12973;BME280;6551;51.056;9.466;2023-02-12T11:05:42;99749.81;;;11.96;79.69
12973;BME280;6551;51.056;9.466;2023-02-12T11:08:35;99754.38;;;11.87;77.97
12973;BME280;6551;51.056;9.466;2023-02-12T11:13:40;99747.25;;;12.02;76.98
12973;BME280;6551;51.056;9.466;2023-02-12T11:16:09;99747.00;;;12.20;75.46
12973;BME280;6551;51.056;9.466;2023-02-12T11:18:37;99749.00;;;12.18;75.09
12973;BME280;6551;51.056;9.466;2023-02-12T11:21:10;99744.88;;;12.38;74.88
12973;BME280;6551;51.056;9.466;2023-02-12T11:23:42;99741.22;;;12.31;75.17
12973;BME280;6551;51.056;9.466;2023-02-12T11:29:20;99738.13;;;11.97;75.45
12973;BME280;6551;51.056;9.466;2023-02-12T11:32:02;99738.19;;;12.11;75.41
12973;BME280;6551;51.056;9.466;2023-02-12T11:34:29;99732.91;;;12.03;74.58
12973;BME280;6551;51.056;9.466;2023-02-12T11:36:56;99738.53;;;11.86;74.96
12973;BME280;6551;51.056;9.466;2023-02-12T11:39:27;99737.63;;;12.01;75.06
12973;BME280;6551;51.056;9.466;2023-02-12T11:42:13;99740.78;;;12.05;74.59
12973;BME280;6551;51.056;9.466;2023-02-12T11:45:03;99735.81;;;12.16;74.72
12973;BME280;6551;51.056;9.466;2023-02-12T11:47:33;99729.75;;;12.00;75.95
12973;BME280;6551;51.056;9.466;2023-02-12T11:50:30;99733.75;;;12.26;75.99
12973;BME280;6551;51.056;9.466;2023-02-12T11:53:05;99740.88;;;12.57;74.49
12973;BME280;6551;51.056;9.466;2023-02-12T11:55:38;99730.25;;;12.63;73.64
12973;BME280;6551;51.056;9.466;2023-02-12T11:58:20;99731.34;;;12.77;73.03
12973;BME280;6551;51.056;9.466;2023-02-12T12:01:08;99726.16;;;12.75;73.15
12973;BME280;6551;51.056;9.466;2023-02-12T12:06:30;99727.25;;;12.81;71.35
12973;BME280;6551;51.056;9.466;2023-02-12T12:15:22;99714.28;;;12.93;71.81
12973;BME280;6551;51.056;9.466;2023-02-12T12:18:47;99710.50;;;13.02;71.54
12973;BME280;6551;51.056;9.466;2023-02-12T12:25:30;99711.56;;;13.15;71.58
12973;BME280;6551;51.056;9.466;2023-02-12T12:31:32;99702.44;;;13.10;71.42
12973;BME280;6551;51.056;9.466;2023-02-12T12:34:13;99705.84;;;13.18;70.55
12973;BME280;6551;51.056;9.466;2023-02-12T12:37:09;99712.03;;;13.19;70.03
12973;BME280;6551;51.056;9.466;2023-02-12T12:52:02;99692.25;;;12.90;70.69
12973;BME280;6551;51.056;9.466;2023-02-12T13:03:50;99688.88;;;12.59;72.43
12973;BME280;6551;51.056;9.466;2023-02-12T13:24:40;99685.81;;;12.48;71.82
12973;BME280;6551;51.056;9.466;2023-02-12T13:27:19;99677.38;;;12.59;72.50
12973;BME280;6551;51.056;9.466;2023-02-12T13:29:53;99672.84;;;12.59;72.24
12973;BME280;6551;51.056;9.466;2023-02-12T13:32:42;99692.31;;;12.68;71.98
12973;BME280;6551;51.056;9.466;2023-02-12T13:35:30;99681.56;;;12.39;71.85
12973;BME280;6551;51.056;9.466;2023-02-12T13:37:58;99683.09;;;12.33;72.31
12973;BME280;6551;51.056;9.466;2023-02-12T13:40:29;99684.28;;;12.53;72.88
12973;BME280;6551;51.056;9.466;2023-02-12T13:46:40;99693.88;;;12.62;72.44
12973;BME280;6551;51.056;9.466;2023-02-12T13:52:05;99679.50;;;12.78;71.89
12973;BME280;6551;51.056;9.466;2023-02-12T13:54:59;99678.69;;;12.92;71.04
12973;BME280;6551;51.056;9.466;2023-02-12T13:57:29;99681.44;;;12.69;71.14
12973;BME280;6551;51.056;9.466;2023-02-12T13:59:55;99689.94;;;12.73;71.97
12973;BME280;6551;51.056;9.466;2023-02-12T14:05:29;99682.66;;;12.81;72.18
12973;BME280;6551;51.056;9.466;2023-02-12T14:08:02;99676.09;;;12.84;72.08
12973;BME280;6551;51.056;9.466;2023-02-12T14:13:23;99680.25;;;12.86;71.50
12973;BME280;6551;51.056;9.466;2023-02-12T14:15:55;99671.41;;;12.86;71.49
12973;BME280;6551;51.056;9.466;2023-02-12T14:18:35;99672.22;;;12.86;70.79
12973;BME280;6551;51.056;9.466;2023-02-12T14:23:43;99677.56;;;12.72;71.46
12973;BME280;6551;51.056;9.466;2023-02-12T14:26:18;99660.44;;;12.81;71.49
12973;BME280;6551;51.056;9.466;2023-02-12T14:29:05;99670.13;;;12.82;71.49
12973;BME280;6551;51.056;9.466;2023-02-12T14:31:41;99659.06;;;12.85;71.21
12973;BME280;6551;51.056;9.466;2023-02-12T14:36:41;99658.41;;;12.98;70.68
12973;BME280;6551;51.056;9.466;2023-02-12T14:41:51;99661.91;;;12.83;70.13
12973;BME280;6551;51.056;9.466;2023-02-12T14:47:00;99663.66;;;12.76;71.16
12973;BME280;6551;51.056;9.466;2023-02-12T14:49:46;99665.50;;;12.76;71.00
12973;BME280;6551;51.056;9.466;2023-02-12T14:52:21;99674.09;;;12.71;71.55
12973;BME280;6551;51.056;9.466;2023-02-12T14:55:05;99678.56;;;12.85;71.28
12973;BME280;6551;51.056;9.466;2023-02-12T14:57:41;99677.94;;;12.83;71.92
12973;BME280;6551;51.056;9.466;2023-02-12T15:05:50;99669.19;;;12.89;70.98
12973;BME280;6551;51.056;9.466;2023-02-12T15:11:44;99664.94;;;12.80;70.80
12973;BME280;6551;51.056;9.466;2023-02-12T15:14:30;99667.69;;;12.72;71.07
12973;BME280;6551;51.056;9.466;2023-02-12T15:17:21;99671.31;;;12.79;71.64
12973;BME280;6551;51.056;9.466;2023-02-12T15:20:19;99674.69;;;12.59;71.89
12973;BME280;6551;51.056;9.466;2023-02-12T15:22:48;99677.09;;;12.54;72.23
12973;BME280;6551;51.056;9.466;2023-02-12T15:25:31;99671.28;;;12.65;72.62
12973;BME280;6551;51.056;9.466;2023-02-12T15:28:05;99669.66;;;12.26;73.36
12973;BME280;6551;51.056;9.466;2023-02-12T15:30:41;99669.66;;;12.26;73.52
12973;BME280;6551;51.056;9.466;2023-02-12T15:33:08;99660.97;;;12.24;73.96
12973;BME280;6551;51.056;9.466;2023-02-12T15:35:38;99667.16;;;12.25;73.97
12973;BME280;6551;51.056;9.466;2023-02-12T15:38:23;99670.53;;;12.19;74.11
12973;BME280;6551;51.056;9.466;2023-02-12T15:40:55;99676.56;;;12.21;74.15
12973;BME280;6551;51.056;9.466;2023-02-12T15:43:27;99669.38;;;12.21;74.17
12973;BME280;6551;51.056;9.466;2023-02-12T15:45:54;99670.03;;;12.01;74.29
12973;BME280;6551;51.056;9.466;2023-02-12T15:48:27;99670.31;;;12.06;74.36
12973;BME280;6551;51.056;9.466;2023-02-12T15:53:38;99667.50;;;12.07;74.18
12973;BME280;6551;51.056;9.466;2023-02-12T15:56:14;99669.03;;;12.02;75.06
12973;BME280;6551;51.056;9.466;2023-02-12T15:58:53;99664.69;;;12.01;75.00
12973;BME280;6551;51.056;9.466;2023-02-12T16:01:26;99665.34;;;12.03;74.96
12973;BME280;6551;51.056;9.466;2023-02-12T16:03:58;99664.56;;;11.94;76.07
12973;BME280;6551;51.056;9.466;2023-02-12T16:06:27;99661.19;;;12.00;76.02
12973;BME280;6551;51.056;9.466;2023-02-12T16:09:01;99659.16;;;12.02;75.87
12973;BME280;6551;51.056;9.466;2023-02-12T16:11:28;99667.28;;;12.09;75.60
12973;BME280;6551;51.056;9.466;2023-02-12T16:13:59;99657.16;;;12.04;74.70
12973;BME280;6551;51.056;9.466;2023-02-12T16:16:30;99655.31;;;12.05;74.94
12973;BME280;6551;51.056;9.466;2023-02-12T16:19:21;99663.22;;;11.98;75.02
12973;BME280;6551;51.056;9.466;2023-02-12T16:22:13;99668.84;;;12.03;75.17
12973;BME280;6551;51.056;9.466;2023-02-12T16:24:49;99668.47;;;12.06;74.76
12973;BME280;6551;51.056;9.466;2023-02-12T16:30:03;99666.44;;;11.94;74.63
12973;BME280;6551;51.056;9.466;2023-02-12T16:32:43;99671.09;;;11.92;75.38
12973;BME280;6551;51.056;9.466;2023-02-12T16:50:48;99680.06;;;11.68;75.07